sensor_id;sensor_type;location;lat;lon;timestamp;P1;durP1;ratioP1;P2;durP2;ratioP2
70806;SDS011;58882;52.170;5.386;2023-03-01T00:01:16;10.85;;;5.90;;
70806;SDS011;58882;52.170;5.386;2023-03-01T00:03:58;11.20;;;5.95;;
70806;SDS011;58882;52.170;5.386;2023-03-01T00:06:46;12.85;;;5.95;;
70806;SDS011;58882;52.170;5.386;2023-03-01T00:09:27;12.13;;;5.95;;
70806;SDS011;58882;52.170;5.386;2023-03-01T00:12:14;10.65;;;5.47;;
70806;SDS011;58882;52.170;5.386;2023-03-01T00:14:54;12.75;;;6.60;;
70806;SDS011;58882;52.170;5.386;2023-03-01T00:17:34;12.60;;;6.00;;
70806;SDS011;58882;52.170;5.386;2023-03-01T00:20:21;12.18;;;6.43;;
70806;SDS011;58882;52.170;5.386;2023-03-01T00:23:01;12.23;;;6.47;;
70806;SDS011;58882;52.170;5.386;2023-03-01T00:25:48;14.32;;;6.50;;
70806;SDS011;58882;52.170;5.386;2023-03-01T00:28:22;23.55;;;6.80;;
70806;SDS011;58882;52.170;5.386;2023-03-01T00:31:18;11.52;;;5.97;;
70806;SDS011;58882;52.170;5.386;2023-03-01T00:34:01;14.45;;;7.13;;
70806;SDS011;58882;52.170;5.386;2023-03-01T00:36:49;13.60;;;6.50;;
70806;SDS011;58882;52.170;5.386;2023-03-01T00:39:22;15.63;;;7.32;;
70806;SDS011;58882;52.170;5.386;2023-03-01T00:42:16;11.45;;;6.45;;
70806;SDS011;58882;52.170;5.386;2023-03-01T00:44:49;12.00;;;6.65;;
70806;SDS011;58882;52.170;5.386;2023-03-01T00:47:43;12.88;;;6.15;;
70806;SDS011;58882;52.170;5.386;2023-03-01T00:50:16;12.98;;;6.60;;
70806;SDS011;58882;52.170;5.386;2023-03-01T00:53:11;11.85;;;6.07;;
70806;SDS011;58882;52.170;5.386;2023-03-01T00:56:05;12.85;;;6.30;;
70806;SDS011;58882;52.170;5.386;2023-03-01T00:58:47;11.20;;;6.28;;
70806;SDS011;58882;52.170;5.386;2023-03-01T01:01:41;11.00;;;6.13;;
70806;SDS011;58882;52.170;5.386;2023-03-01T01:04:21;12.85;;;6.60;;
70806;SDS011;58882;52.170;5.386;2023-03-01T01:07:08;11.85;;;6.25;;
70806;SDS011;58882;52.170;5.386;2023-03-01T01:09:48;13.18;;;6.78;;
70806;SDS011;58882;52.170;5.386;2023-03-01T01:12:35;14.55;;;6.50;;
70806;SDS011;58882;52.170;5.386;2023-03-01T01:18:02;11.57;;;6.30;;
70806;SDS011;58882;52.170;5.386;2023-03-01T01:20:42;13.15;;;6.68;;
70806;SDS011;58882;52.170;5.386;2023-03-01T01:23:29;12.20;;;6.63;;
70806;SDS011;58882;52.170;5.386;2023-03-01T01:26:11;11.98;;;6.55;;
70806;SDS011;58882;52.170;5.386;2023-03-01T01:29:07;11.82;;;6.45;;
70806;SDS011;58882;52.170;5.386;2023-03-01T01:31:48;12.30;;;6.70;;
70806;SDS011;58882;52.170;5.386;2023-03-01T01:34:35;12.27;;;6.55;;
70806;SDS011;58882;52.170;5.386;2023-03-01T01:37:15;12.18;;;6.68;;
70806;SDS011;58882;52.170;5.386;2023-03-01T01:40:02;14.35;;;6.90;;
70806;SDS011;58882;52.170;5.386;2023-03-01T01:42:43;13.50;;;6.57;;
70806;SDS011;58882;52.170;5.386;2023-03-01T01:45:34;13.02;;;6.15;;
70806;SDS011;58882;52.170;5.386;2023-03-01T01:48:17;12.23;;;6.60;;
70806;SDS011;58882;52.170;5.386;2023-03-01T01:51:09;12.50;;;6.55;;
70806;SDS011;58882;52.170;5.386;2023-03-01T01:53:53;11.40;;;6.50;;
70806;SDS011;58882;52.170;5.386;2023-03-01T01:56:47;11.75;;;7.00;;
70806;SDS011;58882;52.170;5.386;2023-03-01T01:59:32;11.65;;;6.40;;
70806;SDS011;58882;52.170;5.386;2023-03-01T02:02:20;10.95;;;6.47;;
70806;SDS011;58882;52.170;5.386;2023-03-01T02:05:02;12.25;;;6.57;;
70806;SDS011;58882;52.170;5.386;2023-03-01T02:08:06;11.55;;;6.68;;
70806;SDS011;58882;52.170;5.386;2023-03-01T02:10:50;12.45;;;6.93;;
70806;SDS011;58882;52.170;5.386;2023-03-01T02:13:39;11.88;;;6.57;;
70806;SDS011;58882;52.170;5.386;2023-03-01T02:16:14;12.52;;;7.40;;
70806;SDS011;58882;52.170;5.386;2023-03-01T02:19:10;11.98;;;6.55;;
70806;SDS011;58882;52.170;5.386;2023-03-01T02:21:56;12.13;;;6.93;;
70806;SDS011;58882;52.170;5.386;2023-03-01T02:27:40;14.20;;;6.78;;
70806;SDS011;58882;52.170;5.386;2023-03-01T02:31:03;14.02;;;7.05;;
70806;SDS011;58882;52.170;5.386;2023-03-01T02:33:57;13.88;;;7.25;;
70806;SDS011;58882;52.170;5.386;2023-03-01T02:37:00;11.32;;;6.95;;
70806;SDS011;58882;52.170;5.386;2023-03-01T02:39:46;11.48;;;6.75;;
70806;SDS011;58882;52.170;5.386;2023-03-01T02:42:40;12.48;;;6.75;;
70806;SDS011;58882;52.170;5.386;2023-03-01T02:45:33;11.73;;;7.10;;
70806;SDS011;58882;52.170;5.386;2023-03-01T02:48:20;12.27;;;6.63;;
70806;SDS011;58882;52.170;5.386;2023-03-01T02:51:03;13.60;;;6.82;;
70806;SDS011;58882;52.170;5.386;2023-03-01T02:54:05;11.80;;;6.82;;
70806;SDS011;58882;52.170;5.386;2023-03-01T02:56:47;12.68;;;7.32;;
70806;SDS011;58882;52.170;5.386;2023-03-01T02:59:37;13.52;;;7.50;;
70806;SDS011;58882;52.170;5.386;2023-03-01T03:02:20;12.00;;;6.82;;
70806;SDS011;58882;52.170;5.386;2023-03-01T03:05:24;14.35;;;7.60;;
70806;SDS011;58882;52.170;5.386;2023-03-01T03:08:07;13.85;;;8.05;;
70806;SDS011;58882;52.170;5.386;2023-03-01T03:10:57;14.10;;;7.40;;
70806;SDS011;58882;52.170;5.386;2023-03-01T03:13:37;13.63;;;7.30;;
70806;SDS011;58882;52.170;5.386;2023-03-01T03:16:27;13.35;;;7.00;;
70806;SDS011;58882;52.170;5.386;2023-03-01T03:19:09;12.70;;;7.07;;
70806;SDS011;58882;52.170;5.386;2023-03-01T03:21:56;13.57;;;7.05;;
70806;SDS011;58882;52.170;5.386;2023-03-01T03:24:36;13.65;;;7.90;;
70806;SDS011;58882;52.170;5.386;2023-03-01T03:27:23;13.68;;;7.13;;
70806;SDS011;58882;52.170;5.386;2023-03-01T03:30:04;11.95;;;7.10;;
70806;SDS011;58882;52.170;5.386;2023-03-01T03:33:00;13.18;;;7.47;;
70806;SDS011;58882;52.170;5.386;2023-03-01T03:35:44;11.98;;;7.40;;
70806;SDS011;58882;52.170;5.386;2023-03-01T03:38:41;12.48;;;6.93;;
70806;SDS011;58882;52.170;5.386;2023-03-01T03:41:14;11.75;;;7.30;;
70806;SDS011;58882;52.170;5.386;2023-03-01T03:44:09;12.15;;;7.47;;
70806;SDS011;58882;52.170;5.386;2023-03-01T03:46:42;13.95;;;7.25;;
70806;SDS011;58882;52.170;5.386;2023-03-01T03:49:36;12.43;;;6.95;;
70806;SDS011;58882;52.170;5.386;2023-03-01T03:52:09;13.88;;;7.72;;
70806;SDS011;58882;52.170;5.386;2023-03-01T03:55:03;14.48;;;8.02;;
70806;SDS011;58882;52.170;5.386;2023-03-01T03:57:46;14.77;;;7.35;;
70806;SDS011;58882;52.170;5.386;2023-03-01T04:00:38;13.90;;;7.95;;
70806;SDS011;58882;52.170;5.386;2023-03-01T04:03:13;13.65;;;7.63;;
70806;SDS011;58882;52.170;5.386;2023-03-01T04:06:10;15.77;;;7.90;;
70806;SDS011;58882;52.170;5.386;2023-03-01T04:08:43;14.75;;;8.82;;
70806;SDS011;58882;52.170;5.386;2023-03-01T04:11:37;11.57;;;7.35;;
70806;SDS011;58882;52.170;5.386;2023-03-01T04:14:17;13.80;;;8.20;;
70806;SDS011;58882;52.170;5.386;2023-03-01T04:17:04;13.65;;;7.85;;
70806;SDS011;58882;52.170;5.386;2023-03-01T04:19:44;13.73;;;8.13;;
70806;SDS011;58882;52.170;5.386;2023-03-01T04:22:31;14.93;;;8.75;;
70806;SDS011;58882;52.170;5.386;2023-03-01T04:25:13;17.52;;;8.30;;
70806;SDS011;58882;52.170;5.386;2023-03-01T04:28:00;14.63;;;8.13;;
70806;SDS011;58882;52.170;5.386;2023-03-01T04:30:40;14.60;;;8.45;;
70806;SDS011;58882;52.170;5.386;2023-03-01T04:33:34;14.20;;;8.18;;
70806;SDS011;58882;52.170;5.386;2023-03-01T04:36:15;14.90;;;7.78;;
70806;SDS011;58882;52.170;5.386;2023-03-01T04:39:10;17.17;;;8.40;;
70806;SDS011;58882;52.170;5.386;2023-03-01T04:41:50;15.30;;;8.02;;
70806;SDS011;58882;52.170;5.386;2023-03-01T04:44:37;16.25;;;8.52;;
70806;SDS011;58882;52.170;5.386;2023-03-01T04:47:10;12.25;;;7.82;;
70806;SDS011;58882;52.170;5.386;2023-03-01T04:50:04;15.07;;;8.43;;
70806;SDS011;58882;52.170;5.386;2023-03-01T04:52:45;13.60;;;8.30;;
70806;SDS011;58882;52.170;5.386;2023-03-01T04:55:33;14.30;;;8.35;;
70806;SDS011;58882;52.170;5.386;2023-03-01T04:58:13;16.65;;;8.50;;
70806;SDS011;58882;52.170;5.386;2023-03-01T05:01:00;16.02;;;8.15;;
70806;SDS011;58882;52.170;5.386;2023-03-01T05:03:41;15.60;;;8.45;;
70806;SDS011;58882;52.170;5.386;2023-03-01T05:06:32;14.13;;;7.28;;
70806;SDS011;58882;52.170;5.386;2023-03-01T05:09:12;14.00;;;7.50;;
70806;SDS011;58882;52.170;5.386;2023-03-01T05:11:59;13.50;;;7.70;;
70806;SDS011;58882;52.170;5.386;2023-03-01T05:14:39;14.07;;;7.18;;
70806;SDS011;58882;52.170;5.386;2023-03-01T05:17:27;13.07;;;7.38;;
70806;SDS011;58882;52.170;5.386;2023-03-01T05:20:07;11.98;;;7.00;;
70806;SDS011;58882;52.170;5.386;2023-03-01T05:22:59;14.48;;;6.70;;
70806;SDS011;58882;52.170;5.386;2023-03-01T05:25:39;13.55;;;7.30;;
70806;SDS011;58882;52.170;5.386;2023-03-01T05:28:26;14.13;;;7.53;;
70806;SDS011;58882;52.170;5.386;2023-03-01T05:31:07;13.05;;;7.18;;
70806;SDS011;58882;52.170;5.386;2023-03-01T05:33:54;12.07;;;6.97;;
70806;SDS011;58882;52.170;5.386;2023-03-01T05:36:34;13.27;;;7.10;;
70806;SDS011;58882;52.170;5.386;2023-03-01T05:39:22;14.98;;;7.40;;
70806;SDS011;58882;52.170;5.386;2023-03-01T05:42:03;14.20;;;7.45;;
70806;SDS011;58882;52.170;5.386;2023-03-01T05:44:50;15.05;;;7.43;;
70806;SDS011;58882;52.170;5.386;2023-03-01T05:47:30;15.15;;;7.07;;
70806;SDS011;58882;52.170;5.386;2023-03-01T05:50:18;13.55;;;7.28;;
70806;SDS011;58882;52.170;5.386;2023-03-01T05:53:01;13.98;;;6.82;;
70806;SDS011;58882;52.170;5.386;2023-03-01T05:56:02;13.73;;;6.88;;
70806;SDS011;58882;52.170;5.386;2023-03-01T05:58:57;14.23;;;7.30;;
70806;SDS011;58882;52.170;5.386;2023-03-01T06:01:37;12.48;;;6.60;;
70806;SDS011;58882;52.170;5.386;2023-03-01T06:04:31;12.55;;;6.70;;
70806;SDS011;58882;52.170;5.386;2023-03-01T06:07:04;16.40;;;7.45;;
70806;SDS011;58882;52.170;5.386;2023-03-01T06:09:58;13.50;;;6.93;;
70806;SDS011;58882;52.170;5.386;2023-03-01T06:12:31;13.98;;;6.95;;
70806;SDS011;58882;52.170;5.386;2023-03-01T06:15:26;16.05;;;7.45;;
70806;SDS011;58882;52.170;5.386;2023-03-01T06:18:06;15.70;;;7.70;;
70806;SDS011;58882;52.170;5.386;2023-03-01T06:20:53;13.35;;;7.07;;
70806;SDS011;58882;52.170;5.386;2023-03-01T06:23:34;11.85;;;6.38;;
70806;SDS011;58882;52.170;5.386;2023-03-01T06:26:29;11.40;;;6.78;;
70806;SDS011;58882;52.170;5.386;2023-03-01T06:29:09;13.30;;;6.95;;
70806;SDS011;58882;52.170;5.386;2023-03-01T06:32:03;13.48;;;6.55;;
70806;SDS011;58882;52.170;5.386;2023-03-01T06:34:43;11.10;;;5.80;;
70806;SDS011;58882;52.170;5.386;2023-03-01T06:37:30;11.23;;;6.43;;
70806;SDS011;58882;52.170;5.386;2023-03-01T06:40:03;11.55;;;6.28;;
70806;SDS011;58882;52.170;5.386;2023-03-01T06:42:58;11.32;;;6.15;;
70806;SDS011;58882;52.170;5.386;2023-03-01T06:45:39;12.05;;;6.63;;
70806;SDS011;58882;52.170;5.386;2023-03-01T06:48:34;15.27;;;6.40;;
70806;SDS011;58882;52.170;5.386;2023-03-01T06:51:28;13.80;;;6.75;;
70806;SDS011;58882;52.170;5.386;2023-03-01T06:54:15;14.02;;;6.80;;
70806;SDS011;58882;52.170;5.386;2023-03-01T06:57:09;11.93;;;6.70;;
70806;SDS011;58882;52.170;5.386;2023-03-01T06:59:42;12.15;;;6.72;;
70806;SDS011;58882;52.170;5.386;2023-03-01T07:02:36;15.75;;;7.45;;
70806;SDS011;58882;52.170;5.386;2023-03-01T07:05:09;11.90;;;6.68;;
70806;SDS011;58882;52.170;5.386;2023-03-01T07:08:03;14.65;;;6.00;;
70806;SDS011;58882;52.170;5.386;2023-03-01T07:10:43;12.48;;;6.13;;
70806;SDS011;58882;52.170;5.386;2023-03-01T07:13:31;14.32;;;6.32;;
70806;SDS011;58882;52.170;5.386;2023-03-01T07:16:11;10.98;;;5.93;;
70806;SDS011;58882;52.170;5.386;2023-03-01T07:19:00;12.15;;;5.53;;
70806;SDS011;58882;52.170;5.386;2023-03-01T07:21:40;12.55;;;6.05;;
70806;SDS011;58882;52.170;5.386;2023-03-01T07:24:27;11.52;;;6.03;;
70806;SDS011;58882;52.170;5.386;2023-03-01T07:27:07;12.50;;;6.22;;
70806;SDS011;58882;52.170;5.386;2023-03-01T07:29:54;12.13;;;6.35;;
70806;SDS011;58882;52.170;5.386;2023-03-01T07:32:34;12.95;;;6.55;;
70806;SDS011;58882;52.170;5.386;2023-03-01T07:35:21;12.98;;;6.47;;
70806;SDS011;58882;52.170;5.386;2023-03-01T07:38:02;12.70;;;6.65;;
70806;SDS011;58882;52.170;5.386;2023-03-01T07:40:49;12.70;;;6.30;;
70806;SDS011;58882;52.170;5.386;2023-03-01T07:43:29;12.38;;;6.30;;
70806;SDS011;58882;52.170;5.386;2023-03-01T07:46:24;15.60;;;7.15;;
70806;SDS011;58882;52.170;5.386;2023-03-01T07:49:04;12.35;;;7.18;;
70806;SDS011;58882;52.170;5.386;2023-03-01T07:51:51;11.55;;;6.45;;
70806;SDS011;58882;52.170;5.386;2023-03-01T07:54:31;11.98;;;6.65;;
70806;SDS011;58882;52.170;5.386;2023-03-01T07:57:18;13.93;;;7.75;;
70806;SDS011;58882;52.170;5.386;2023-03-01T07:59:58;10.52;;;6.10;;
70806;SDS011;58882;52.170;5.386;2023-03-01T08:02:45;10.52;;;5.93;;
70806;SDS011;58882;52.170;5.386;2023-03-01T08:05:25;13.50;;;6.72;;
70806;SDS011;58882;52.170;5.386;2023-03-01T08:08:12;12.50;;;6.15;;
70806;SDS011;58882;52.170;5.386;2023-03-01T08:10:52;10.77;;;5.95;;
70806;SDS011;58882;52.170;5.386;2023-03-01T08:13:42;11.70;;;6.30;;
70806;SDS011;58882;52.170;5.386;2023-03-01T08:16:25;12.05;;;6.95;;
70806;SDS011;58882;52.170;5.386;2023-03-01T08:19:13;12.35;;;6.47;;
70806;SDS011;58882;52.170;5.386;2023-03-01T08:21:53;14.68;;;6.03;;
70806;SDS011;58882;52.170;5.386;2023-03-01T08:24:40;20.98;;;6.22;;
70806;SDS011;58882;52.170;5.386;2023-03-01T08:30:14;10.07;;;5.20;;
70806;SDS011;58882;52.170;5.386;2023-03-01T08:35:41;10.90;;;5.47;;
70806;SDS011;58882;52.170;5.386;2023-03-01T08:41:08;10.45;;;5.18;;
70806;SDS011;58882;52.170;5.386;2023-03-01T08:43:48;10.00;;;5.35;;
70806;SDS011;58882;52.170;5.386;2023-03-01T08:46:45;10.10;;;4.80;;
70806;SDS011;58882;52.170;5.386;2023-03-01T08:49:18;8.18;;;4.80;;
70806;SDS011;58882;52.170;5.386;2023-03-01T08:52:13;8.40;;;4.65;;
70806;SDS011;58882;52.170;5.386;2023-03-01T08:55:00;9.20;;;4.93;;
70806;SDS011;58882;52.170;5.386;2023-03-01T08:57:40;10.40;;;4.97;;
70806;SDS011;58882;52.170;5.386;2023-03-01T09:00:27;9.20;;;5.07;;
70806;SDS011;58882;52.170;5.386;2023-03-01T09:03:00;8.25;;;4.60;;
70806;SDS011;58882;52.170;5.386;2023-03-01T09:05:59;10.13;;;4.85;;
70806;SDS011;58882;52.170;5.386;2023-03-01T09:08:35;8.30;;;4.63;;
70806;SDS011;58882;52.170;5.386;2023-03-01T09:11:30;9.15;;;4.50;;
70806;SDS011;58882;52.170;5.386;2023-03-01T09:14:05;8.00;;;4.32;;
70806;SDS011;58882;52.170;5.386;2023-03-01T09:16:59;8.27;;;4.07;;
70806;SDS011;58882;52.170;5.386;2023-03-01T09:19:42;8.43;;;4.10;;
70806;SDS011;58882;52.170;5.386;2023-03-01T09:22:29;7.57;;;3.60;;
70806;SDS011;58882;52.170;5.386;2023-03-01T09:25:09;6.15;;;3.55;;
70806;SDS011;58882;52.170;5.386;2023-03-01T09:28:03;8.50;;;3.53;;
70806;SDS011;58882;52.170;5.386;2023-03-01T09:30:36;6.38;;;2.90;;
70806;SDS011;58882;52.170;5.386;2023-03-01T09:33:30;8.60;;;3.50;;
70806;SDS011;58882;52.170;5.386;2023-03-01T09:36:06;6.50;;;3.10;;
70806;SDS011;58882;52.170;5.386;2023-03-01T09:39:05;6.88;;;3.13;;
70806;SDS011;58882;52.170;5.386;2023-03-01T09:44:56;5.57;;;2.78;;
70806;SDS011;58882;52.170;5.386;2023-03-01T09:47:34;5.43;;;2.80;;
70806;SDS011;58882;52.170;5.386;2023-03-01T09:50:32;8.60;;;2.80;;
70806;SDS011;58882;52.170;5.386;2023-03-01T09:53:21;5.63;;;2.70;;
70806;SDS011;58882;52.170;5.386;2023-03-01T09:56:22;4.85;;;2.42;;
70806;SDS011;58882;52.170;5.386;2023-03-01T09:59:25;4.07;;;2.22;;
70806;SDS011;58882;52.170;5.386;2023-03-01T10:02:19;5.22;;;2.42;;
70806;SDS011;58882;52.170;5.386;2023-03-01T10:11:26;4.80;;;2.30;;
70806;SDS011;58882;52.170;5.386;2023-03-01T10:14:15;5.88;;;2.08;;
70806;SDS011;58882;52.170;5.386;2023-03-01T10:17:46;6.30;;;2.00;;
70806;SDS011;58882;52.170;5.386;2023-03-01T10:20:51;4.07;;;1.77;;
70806;SDS011;58882;52.170;5.386;2023-03-01T10:29:49;4.40;;;2.00;;
70806;SDS011;58882;52.170;5.386;2023-03-01T10:32:35;5.00;;;1.90;;
70806;SDS011;58882;52.170;5.386;2023-03-01T10:35:29;4.18;;;1.90;;
70806;SDS011;58882;52.170;5.386;2023-03-01T10:38:07;6.03;;;1.70;;
70806;SDS011;58882;52.170;5.386;2023-03-01T10:41:05;3.72;;;1.77;;
70806;SDS011;58882;52.170;5.386;2023-03-01T10:43:47;5.03;;;1.67;;
70806;SDS011;58882;52.170;5.386;2023-03-01T10:46:43;3.17;;;1.60;;
70806;SDS011;58882;52.170;5.386;2023-03-01T10:49:20;3.38;;;1.60;;
70806;SDS011;58882;52.170;5.386;2023-03-01T10:52:19;3.40;;;1.70;;
70806;SDS011;58882;52.170;5.386;2023-03-01T10:58:18;4.30;;;1.80;;
70806;SDS011;58882;52.170;5.386;2023-03-01T11:01:01;3.72;;;1.60;;
70806;SDS011;58882;52.170;5.386;2023-03-01T11:06:46;3.63;;;1.73;;
70806;SDS011;58882;52.170;5.386;2023-03-01T11:09:45;3.63;;;1.70;;
70806;SDS011;58882;52.170;5.386;2023-03-01T11:12:25;2.63;;;1.50;;
70806;SDS011;58882;52.170;5.386;2023-03-01T11:15:23;4.63;;;1.67;;
70806;SDS011;58882;52.170;5.386;2023-03-01T11:17:59;3.53;;;1.45;;
70806;SDS011;58882;52.170;5.386;2023-03-01T11:20:54;2.97;;;1.70;;
70806;SDS011;58882;52.170;5.386;2023-03-01T11:23:35;3.25;;;1.60;;
70806;SDS011;58882;52.170;5.386;2023-03-01T11:26:25;2.85;;;1.52;;
70806;SDS011;58882;52.170;5.386;2023-03-01T11:29:13;3.05;;;1.42;;
70806;SDS011;58882;52.170;5.386;2023-03-01T11:32:28;3.72;;;1.88;;
70806;SDS011;58882;52.170;5.386;2023-03-01T11:35:26;3.72;;;1.60;;
70806;SDS011;58882;52.170;5.386;2023-03-01T11:38:24;4.78;;;1.80;;
70806;SDS011;58882;52.170;5.386;2023-03-01T11:41:06;3.83;;;1.73;;
70806;SDS011;58882;52.170;5.386;2023-03-01T11:44:23;4.25;;;1.80;;
70806;SDS011;58882;52.170;5.386;2023-03-01T11:50:50;5.70;;;2.20;;
70806;SDS011;58882;52.170;5.386;2023-03-01T11:59:03;4.63;;;1.92;;
70806;SDS011;58882;52.170;5.386;2023-03-01T12:02:29;4.25;;;1.92;;
70806;SDS011;58882;52.170;5.386;2023-03-01T12:14:47;4.57;;;1.88;;
70806;SDS011;58882;52.170;5.386;2023-03-01T12:20:49;4.32;;;2.05;;
70806;SDS011;58882;52.170;5.386;2023-03-01T12:24:15;8.95;;;2.15;;
70806;SDS011;58882;52.170;5.386;2023-03-01T12:42:31;5.47;;;2.03;;
70806;SDS011;58882;52.170;5.386;2023-03-01T12:51:22;6.07;;;1.85;;
70806;SDS011;58882;52.170;5.386;2023-03-01T12:54:28;5.38;;;1.80;;
70806;SDS011;58882;52.170;5.386;2023-03-01T12:57:39;4.47;;;1.80;;
70806;SDS011;58882;52.170;5.386;2023-03-01T13:03:29;4.75;;;1.98;;
70806;SDS011;58882;52.170;5.386;2023-03-01T13:06:13;4.15;;;1.77;;
70806;SDS011;58882;52.170;5.386;2023-03-01T13:09:30;5.00;;;2.05;;
70806;SDS011;58882;52.170;5.386;2023-03-01T13:15:39;3.40;;;1.52;;
70806;SDS011;58882;52.170;5.386;2023-03-01T13:21:11;3.63;;;1.83;;
70806;SDS011;58882;52.170;5.386;2023-03-01T13:23:51;4.40;;;1.95;;
70806;SDS011;58882;52.170;5.386;2023-03-01T13:27:08;4.57;;;2.03;;
70806;SDS011;58882;52.170;5.386;2023-03-01T13:32:45;4.93;;;2.13;;
70806;SDS011;58882;52.170;5.386;2023-03-01T13:41:47;4.63;;;1.80;;
70806;SDS011;58882;52.170;5.386;2023-03-01T13:44:33;4.28;;;1.73;;
70806;SDS011;58882;52.170;5.386;2023-03-01T13:50:03;3.80;;;1.70;;
70806;SDS011;58882;52.170;5.386;2023-03-01T13:52:45;4.03;;;1.92;;
70806;SDS011;58882;52.170;5.386;2023-03-01T13:58:46;5.22;;;2.17;;
70806;SDS011;58882;52.170;5.386;2023-03-01T14:01:31;4.47;;;2.00;;
70806;SDS011;58882;52.170;5.386;2023-03-01T14:04:23;4.78;;;2.10;;
70806;SDS011;58882;52.170;5.386;2023-03-01T14:07:16;6.32;;;2.05;;
70806;SDS011;58882;52.170;5.386;2023-03-01T14:10:11;4.70;;;2.08;;
70806;SDS011;58882;52.170;5.386;2023-03-01T14:12:54;4.68;;;2.20;;
70806;SDS011;58882;52.170;5.386;2023-03-01T14:25:06;4.68;;;2.00;;
70806;SDS011;58882;52.170;5.386;2023-03-01T14:31:01;4.97;;;2.30;;
70806;SDS011;58882;52.170;5.386;2023-03-01T14:33:56;5.03;;;2.28;;
70806;SDS011;58882;52.170;5.386;2023-03-01T14:36:36;5.10;;;2.20;;
70806;SDS011;58882;52.170;5.386;2023-03-01T14:39:24;4.65;;;2.22;;
70806;SDS011;58882;52.170;5.386;2023-03-01T14:41:59;5.85;;;2.20;;
70806;SDS011;58882;52.170;5.386;2023-03-01T14:44:55;5.80;;;2.30;;
70806;SDS011;58882;52.170;5.386;2023-03-01T14:47:36;5.07;;;2.55;;
70806;SDS011;58882;52.170;5.386;2023-03-01T14:50:31;6.90;;;2.90;;
70806;SDS011;58882;52.170;5.386;2023-03-01T14:53:20;5.35;;;2.50;;
70806;SDS011;58882;52.170;5.386;2023-03-01T14:56:21;4.40;;;2.28;;
70806;SDS011;58882;52.170;5.386;2023-03-01T14:59:15;5.13;;;2.30;;
70806;SDS011;58882;52.170;5.386;2023-03-01T15:01:50;6.93;;;2.53;;
70806;SDS011;58882;52.170;5.386;2023-03-01T15:04:46;5.28;;;2.45;;
70806;SDS011;58882;52.170;5.386;2023-03-01T15:07:36;5.28;;;2.58;;
70806;SDS011;58882;52.170;5.386;2023-03-01T15:10:28;4.72;;;2.20;;
70806;SDS011;58882;52.170;5.386;2023-03-01T15:13:10;9.85;;;2.75;;
70806;SDS011;58882;52.170;5.386;2023-03-01T15:18:47;7.05;;;2.63;;
70806;SDS011;58882;52.170;5.386;2023-03-01T15:21:44;6.38;;;2.15;;
70806;SDS011;58882;52.170;5.386;2023-03-01T15:24:24;6.25;;;2.60;;
70806;SDS011;58882;52.170;5.386;2023-03-01T15:27:21;5.75;;;2.47;;
70806;SDS011;58882;52.170;5.386;2023-03-01T15:29:58;4.97;;;2.30;;
70806;SDS011;58882;52.170;5.386;2023-03-01T15:35:53;4.88;;;2.00;;
70806;SDS011;58882;52.170;5.386;2023-03-01T15:38:50;4.65;;;2.15;;
70806;SDS011;58882;52.170;5.386;2023-03-01T15:41:31;6.40;;;2.20;;
70806;SDS011;58882;52.170;5.386;2023-03-01T15:44:32;5.80;;;2.10;;
70806;SDS011;58882;52.170;5.386;2023-03-01T15:47:25;5.20;;;2.60;;
70806;SDS011;58882;52.170;5.386;2023-03-01T15:50:19;5.00;;;2.25;;
70806;SDS011;58882;52.170;5.386;2023-03-01T15:52:58;4.93;;;2.15;;
70806;SDS011;58882;52.170;5.386;2023-03-01T15:55:53;7.05;;;2.53;;
70806;SDS011;58882;52.170;5.386;2023-03-01T15:58:33;6.28;;;2.65;;
70806;SDS011;58882;52.170;5.386;2023-03-01T16:01:27;5.72;;;2.55;;
70806;SDS011;58882;52.170;5.386;2023-03-01T16:04:15;4.75;;;2.50;;
70806;SDS011;58882;52.170;5.386;2023-03-01T16:07:09;5.53;;;2.30;;
70806;SDS011;58882;52.170;5.386;2023-03-01T16:09:42;6.43;;;2.30;;
70806;SDS011;58882;52.170;5.386;2023-03-01T16:12:36;5.25;;;2.35;;
70806;SDS011;58882;52.170;5.386;2023-03-01T16:15:16;5.35;;;2.30;;
70806;SDS011;58882;52.170;5.386;2023-03-01T16:18:19;5.95;;;2.45;;
70806;SDS011;58882;52.170;5.386;2023-03-01T16:20:52;4.97;;;2.47;;
70806;SDS011;58882;52.170;5.386;2023-03-01T16:23:46;5.95;;;2.65;;
70806;SDS011;58882;52.170;5.386;2023-03-01T16:26:19;5.68;;;2.42;;
70806;SDS011;58882;52.170;5.386;2023-03-01T16:29:13;6.38;;;2.60;;
70806;SDS011;58882;52.170;5.386;2023-03-01T16:31:48;6.13;;;2.28;;
70806;SDS011;58882;52.170;5.386;2023-03-01T16:34:42;6.50;;;2.17;;
70806;SDS011;58882;52.170;5.386;2023-03-01T16:40:19;5.25;;;2.38;;
70806;SDS011;58882;52.170;5.386;2023-03-01T16:43:01;6.03;;;2.50;;
70806;SDS011;58882;52.170;5.386;2023-03-01T16:45:49;4.93;;;2.25;;
70806;SDS011;58882;52.170;5.386;2023-03-01T16:51:16;4.72;;;2.00;;
70806;SDS011;58882;52.170;5.386;2023-03-01T16:53:57;7.47;;;2.80;;
70806;SDS011;58882;52.170;5.386;2023-03-01T16:59:45;4.78;;;2.17;;
70806;SDS011;58882;52.170;5.386;2023-03-01T17:02:18;6.63;;;2.28;;
70806;SDS011;58882;52.170;5.386;2023-03-01T17:07:45;6.45;;;2.58;;
70806;SDS011;58882;52.170;5.386;2023-03-01T17:10:42;5.93;;;2.50;;
70806;SDS011;58882;52.170;5.386;2023-03-01T17:13:23;5.78;;;2.40;;
70806;SDS011;58882;52.170;5.386;2023-03-01T17:16:12;6.78;;;2.55;;
70806;SDS011;58882;52.170;5.386;2023-03-01T17:18:47;7.03;;;2.75;;
70806;SDS011;58882;52.170;5.386;2023-03-01T17:21:42;7.38;;;3.17;;
70806;SDS011;58882;52.170;5.386;2023-03-01T17:24:16;5.82;;;2.55;;
70806;SDS011;58882;52.170;5.386;2023-03-01T17:27:11;5.97;;;2.50;;
70806;SDS011;58882;52.170;5.386;2023-03-01T17:29:51;18.08;;;2.95;;
70806;SDS011;58882;52.170;5.386;2023-03-01T17:35:18;6.03;;;2.67;;
70806;SDS011;58882;52.170;5.386;2023-03-01T17:40:53;5.95;;;2.55;;
70806;SDS011;58882;52.170;5.386;2023-03-01T17:46:20;5.35;;;2.42;;
70806;SDS011;58882;52.170;5.386;2023-03-01T17:51:48;6.95;;;2.90;;
70806;SDS011;58882;52.170;5.386;2023-03-01T17:54:42;9.32;;;2.92;;
70806;SDS011;58882;52.170;5.386;2023-03-01T18:00:12;7.10;;;2.50;;
70806;SDS011;58882;52.170;5.386;2023-03-01T18:03:01;5.95;;;2.42;;
70806;SDS011;58882;52.170;5.386;2023-03-01T18:05:35;11.88;;;2.83;;
70806;SDS011;58882;52.170;5.386;2023-03-01T18:08:29;11.80;;;2.60;;
70806;SDS011;58882;52.170;5.386;2023-03-01T18:13:56;7.13;;;2.72;;
70806;SDS011;58882;52.170;5.386;2023-03-01T18:19:30;6.75;;;2.70;;
70806;SDS011;58882;52.170;5.386;2023-03-01T18:22:04;8.77;;;2.85;;
70806;SDS011;58882;52.170;5.386;2023-03-01T18:27:38;7.78;;;2.92;;
70806;SDS011;58882;52.170;5.386;2023-03-01T18:33:05;7.45;;;3.13;;
70806;SDS011;58882;52.170;5.386;2023-03-01T18:38:39;8.07;;;2.85;;
70806;SDS011;58882;52.170;5.386;2023-03-01T18:41:26;8.93;;;3.40;;
70806;SDS011;58882;52.170;5.386;2023-03-01T18:44:08;7.47;;;3.40;;
70806;SDS011;58882;52.170;5.386;2023-03-01T18:46:56;8.07;;;3.88;;
70806;SDS011;58882;52.170;5.386;2023-03-01T18:52:23;7.75;;;3.60;;
70806;SDS011;58882;52.170;5.386;2023-03-01T18:57:50;7.70;;;3.45;;
70806;SDS011;58882;52.170;5.386;2023-03-01T19:03:18;6.82;;;3.05;;
70806;SDS011;58882;52.170;5.386;2023-03-01T19:08:45;6.72;;;3.38;;
70806;SDS011;58882;52.170;5.386;2023-03-01T19:11:26;7.22;;;3.20;;
70806;SDS011;58882;52.170;5.386;2023-03-01T19:14:14;9.52;;;3.88;;
70806;SDS011;58882;52.170;5.386;2023-03-01T19:19:41;7.25;;;3.10;;
70806;SDS011;58882;52.170;5.386;2023-03-01T19:22:21;7.50;;;3.63;;
70806;SDS011;58882;52.170;5.386;2023-03-01T19:27:48;9.05;;;3.72;;
70806;SDS011;58882;52.170;5.386;2023-03-01T19:33:22;8.55;;;3.67;;
70806;SDS011;58882;52.170;5.386;2023-03-01T19:36:10;10.77;;;3.88;;
70806;SDS011;58882;52.170;5.386;2023-03-01T19:38:51;10.10;;;3.83;;